createdAt,value
2022-12-24T00:01:02.511Z,6.45
2022-12-24T00:03:29.799Z,6.20
2022-12-24T00:05:56.795Z,6.40
2022-12-24T00:08:23.597Z,5.47
2022-12-24T00:10:52.361Z,5.95
2022-12-24T00:13:19.918Z,4.70
2022-12-24T00:15:46.941Z,6.05
2022-12-24T00:18:13.949Z,5.03
2022-12-24T00:20:40.726Z,6.53
2022-12-24T00:23:07.998Z,6.53
2022-12-24T00:25:34.881Z,6.37
2022-12-24T00:28:01.532Z,6.45
2022-12-24T00:30:28.210Z,6.05
2022-12-24T00:32:55.090Z,6.82
2022-12-24T00:35:22.059Z,6.55
2022-12-24T00:37:49.007Z,5.80
2022-12-24T00:40:17.101Z,6.62
2022-12-24T00:42:44.448Z,5.28
2022-12-24T00:45:12.384Z,4.93
2022-12-24T00:47:39.628Z,6.43
2022-12-24T00:50:07.147Z,5.00
2022-12-24T00:52:33.799Z,6.20
2022-12-24T00:55:00.743Z,5.32
2022-12-24T00:57:27.537Z,6.05
2022-12-24T00:59:54.314Z,5.75
2022-12-24T01:02:21.726Z,6.37
2022-12-24T01:05:07.357Z,6.68
2022-12-24T01:07:35.597Z,5.30
2022-12-24T01:10:02.387Z,5.05
2022-12-24T01:12:29.129Z,6.37
2022-12-24T01:14:56.015Z,4.55
2022-12-24T01:17:23.351Z,5.70
2022-12-24T01:19:50.298Z,6.07
2022-12-24T01:22:17.196Z,3.97
2022-12-24T01:24:44.264Z,4.35
2022-12-24T01:27:11.004Z,5.05
2022-12-24T01:29:37.914Z,4.97
2022-12-24T01:32:04.715Z,5.82
2022-12-24T01:34:31.770Z,6.22
2022-12-24T01:36:58.654Z,5.60
2022-12-24T01:39:25.251Z,3.92
2022-12-24T01:42:10.556Z,5.82
2022-12-24T01:44:43.958Z,5.70
2022-12-24T01:47:27.688Z,4.85
2022-12-24T01:50:00.593Z,3.97
2022-12-24T01:52:33.167Z,3.85
2022-12-24T01:55:04.985Z,5.60
2022-12-24T01:57:43.148Z,4.32
2022-12-24T02:00:13.882Z,6.12
2022-12-24T02:02:44.269Z,7.43
2022-12-24T02:05:16.851Z,4.45
2022-12-24T02:07:43.858Z,5.32
2022-12-24T02:10:12.798Z,4.12
2022-12-24T02:12:41.836Z,3.95
2022-12-24T02:15:12.263Z,4.65
2022-12-24T02:17:50.277Z,5.12
2022-12-24T02:20:51.054Z,4.50
2022-12-24T02:23:53.169Z,5.72
2022-12-24T02:26:38.478Z,4.18
2022-12-24T02:29:34.962Z,3.87
2022-12-24T02:32:10.416Z,3.15
2022-12-24T02:34:55.558Z,3.22
2022-12-24T02:37:27.439Z,4.95
2022-12-24T02:40:17.153Z,5.53
2022-12-24T02:42:50.142Z,4.40
2022-12-24T02:45:20.956Z,5.22
2022-12-24T02:47:49.960Z,5.07
2022-12-24T02:50:18.227Z,4.40
2022-12-24T02:52:47.092Z,6.05
2022-12-24T02:55:32.912Z,5.03
2022-12-24T02:58:38.975Z,3.85
2022-12-24T03:01:18.310Z,2.85
2022-12-24T03:04:20.636Z,4.90
2022-12-24T03:06:57.533Z,3.20
2022-12-24T03:09:43.355Z,3.90
2022-12-24T03:12:16.920Z,4.00
2022-12-24T03:14:45.384Z,2.83
2022-12-24T03:17:12.807Z,2.45
2022-12-24T03:19:39.740Z,3.72
2022-12-24T03:22:09.880Z,4.03
2022-12-24T03:24:37.344Z,3.17
2022-12-24T03:27:08.307Z,3.05
2022-12-24T03:29:35.541Z,4.40
2022-12-24T03:32:04.332Z,2.85
2022-12-24T03:34:31.142Z,3.50
2022-12-24T03:36:58.272Z,3.78
2022-12-24T03:39:25.231Z,3.35
2022-12-24T03:41:51.875Z,4.30
2022-12-24T03:44:18.503Z,3.05
2022-12-24T03:46:45.395Z,3.85
2022-12-24T03:49:12.042Z,4.00
2022-12-24T03:51:38.772Z,3.58
2022-12-24T03:54:05.756Z,5.15
2022-12-24T03:56:32.594Z,3.10
2022-12-24T03:58:59.227Z,3.72
2022-12-24T04:01:26.200Z,4.78
2022-12-24T04:03:53.181Z,2.85
2022-12-24T04:06:19.833Z,3.65
2022-12-24T04:08:46.584Z,3.87
2022-12-24T04:11:15.838Z,4.28
2022-12-24T04:13:49.108Z,5.10
2022-12-24T04:16:17.521Z,3.25
2022-12-24T04:18:44.651Z,3.95
2022-12-24T04:21:11.904Z,2.70
2022-12-24T04:23:40.362Z,4.37
2022-12-24T04:26:09.071Z,3.33
2022-12-24T04:28:38.065Z,4.22
2022-12-24T04:31:08.033Z,4.18
2022-12-24T04:33:35.240Z,4.30
2022-12-24T04:36:03.301Z,3.62
2022-12-24T04:38:31.305Z,3.70
2022-12-24T04:41:02.106Z,4.35
2022-12-24T04:43:29.471Z,3.30
2022-12-24T04:45:57.311Z,4.32
2022-12-24T04:48:23.996Z,5.07
2022-12-24T04:50:50.794Z,3.12
2022-12-24T04:53:17.715Z,5.45
2022-12-24T04:55:45.970Z,5.22
2022-12-24T04:58:13.837Z,4.20
2022-12-24T05:00:41.532Z,4.20
2022-12-24T05:03:08.304Z,3.08
2022-12-24T05:05:35.025Z,4.43
2022-12-24T05:08:01.941Z,3.95
2022-12-24T05:10:28.639Z,3.87
2022-12-24T05:12:56.379Z,4.18
2022-12-24T05:15:23.317Z,3.90
2022-12-24T05:17:50.063Z,4.05
2022-12-24T05:20:17.092Z,3.87
2022-12-24T05:23:02.469Z,4.82
2022-12-24T05:25:53.143Z,5.32
2022-12-24T05:28:20.129Z,4.30
2022-12-24T05:30:46.884Z,4.10
2022-12-24T05:33:13.568Z,4.62
2022-12-24T05:35:40.661Z,3.83
2022-12-24T05:38:07.314Z,2.95
2022-12-24T05:40:33.996Z,4.03
2022-12-24T05:43:00.885Z,4.05
2022-12-24T05:45:28.327Z,3.97
2022-12-24T05:47:54.926Z,4.22
2022-12-24T05:50:21.829Z,3.65
2022-12-24T05:52:48.482Z,3.62
2022-12-24T05:55:15.192Z,3.37
2022-12-24T05:57:42.167Z,4.35
2022-12-24T06:00:09.691Z,3.78
2022-12-24T06:02:38.918Z,4.07
2022-12-24T06:05:06.603Z,4.25
2022-12-24T06:07:33.309Z,3.50
2022-12-24T06:09:59.925Z,4.50
2022-12-24T06:12:27.115Z,3.75
2022-12-24T06:14:53.787Z,5.55
2022-12-24T06:17:20.431Z,3.70
2022-12-24T06:19:47.417Z,3.78
2022-12-24T06:22:14.031Z,4.57
2022-12-24T06:24:40.657Z,3.37
2022-12-24T06:27:07.559Z,2.72
2022-12-24T06:29:34.164Z,3.25
2022-12-24T06:32:00.926Z,3.20
2022-12-24T06:34:27.987Z,3.30
2022-12-24T06:36:54.677Z,3.30
2022-12-24T06:39:21.318Z,4.78
2022-12-24T06:41:48.184Z,4.10
2022-12-24T06:44:14.860Z,2.58
2022-12-24T06:46:41.577Z,3.85
2022-12-24T06:49:08.588Z,3.30
2022-12-24T06:51:35.293Z,2.10
2022-12-24T06:54:02.037Z,3.72
2022-12-24T06:56:29.014Z,3.35
2022-12-24T06:58:58.870Z,2.67
2022-12-24T07:01:30.272Z,2.28
2022-12-24T07:03:57.347Z,3.00
2022-12-24T07:06:29.600Z,3.37
2022-12-24T07:08:56.883Z,2.53
2022-12-24T07:11:25.441Z,3.35
2022-12-24T07:13:52.084Z,3.12
2022-12-24T07:16:19.184Z,3.53
2022-12-24T07:18:46.008Z,2.12
2022-12-24T07:21:12.684Z,3.33
2022-12-24T07:23:39.613Z,2.85
2022-12-24T07:26:06.960Z,4.03
2022-12-24T07:28:33.810Z,2.72
2022-12-24T07:31:00.980Z,3.70
2022-12-24T07:33:27.847Z,2.97
2022-12-24T07:35:59.491Z,3.22
2022-12-24T07:38:26.573Z,4.22
2022-12-24T07:40:53.225Z,3.42
2022-12-24T07:43:19.886Z,4.18
2022-12-24T07:45:46.857Z,4.82
2022-12-24T07:48:13.522Z,3.62
2022-12-24T07:50:40.308Z,3.78
2022-12-24T07:53:07.233Z,3.85
2022-12-24T07:55:33.936Z,4.18
2022-12-24T07:58:00.565Z,3.12
2022-12-24T08:00:27.590Z,3.42
2022-12-24T08:02:54.757Z,3.97
2022-12-24T08:05:21.569Z,4.75
2022-12-24T08:07:48.205Z,3.17
2022-12-24T08:10:15.182Z,3.22
2022-12-24T08:12:41.867Z,5.55
2022-12-24T08:15:08.868Z,4.75
2022-12-24T08:17:35.818Z,4.07
2022-12-24T08:20:02.872Z,4.12
2022-12-24T08:22:29.575Z,3.67
2022-12-24T08:24:56.834Z,4.47
2022-12-24T08:27:24.075Z,4.32
2022-12-24T08:29:50.737Z,3.70
2022-12-24T08:32:18.589Z,3.17
2022-12-24T08:34:45.199Z,5.35
2022-12-24T08:37:11.939Z,4.43
2022-12-24T08:39:38.804Z,3.85
2022-12-24T08:42:06.219Z,4.28
2022-12-24T08:44:33.016Z,4.70
2022-12-24T08:47:00.111Z,4.60
2022-12-24T08:49:26.788Z,4.00
2022-12-24T08:51:53.502Z,6.32
2022-12-24T08:54:22.472Z,3.22
2022-12-24T08:56:49.279Z,4.35
2022-12-24T08:59:16.041Z,4.55
2022-12-24T09:01:43.367Z,5.32
2022-12-24T09:04:10.119Z,4.32
2022-12-24T09:06:36.827Z,4.70
2022-12-24T09:09:04.681Z,4.80
2022-12-24T09:11:31.768Z,3.42
2022-12-24T09:13:58.481Z,3.78
2022-12-24T09:16:25.667Z,4.03
2022-12-24T09:18:52.287Z,4.57
2022-12-24T09:21:19.125Z,5.28
2022-12-24T09:23:47.852Z,4.62
2022-12-24T09:26:21.161Z,4.22
2022-12-24T09:28:48.745Z,7.00
2022-12-24T09:31:16.140Z,4.00
2022-12-24T09:33:44.688Z,5.75
2022-12-24T09:36:11.686Z,4.00
2022-12-24T09:38:40.234Z,3.87
2022-12-24T09:41:22.446Z,5.68
2022-12-24T09:43:55.697Z,6.35
2022-12-24T09:46:32.072Z,7.37
2022-12-24T09:49:04.640Z,4.47
2022-12-24T09:51:40.298Z,5.45
2022-12-24T09:54:18.256Z,5.85
2022-12-24T09:56:49.037Z,5.82
2022-12-24T09:59:21.595Z,4.18
2022-12-24T10:01:50.820Z,3.42
2022-12-24T10:04:20.825Z,4.47
2022-12-24T10:06:59.737Z,4.85
2022-12-24T10:09:40.864Z,5.75
2022-12-24T10:12:51.444Z,4.32
2022-12-24T10:15:36.631Z,4.53
2022-12-24T10:18:24.716Z,4.78
2022-12-24T10:21:02.569Z,4.65
2022-12-24T10:23:40.919Z,3.22
2022-12-24T10:26:07.790Z,4.12
2022-12-24T10:28:42.603Z,4.78
2022-12-24T10:31:10.577Z,4.47
2022-12-24T10:33:49.988Z,3.92
2022-12-24T10:36:20.703Z,5.12
2022-12-24T10:38:47.399Z,5.62
2022-12-24T10:41:15.900Z,4.85
2022-12-24T10:43:45.163Z,4.05
2022-12-24T10:46:33.015Z,3.72
2022-12-24T10:49:13.151Z,4.78
2022-12-24T10:51:51.335Z,4.82
2022-12-24T10:54:27.043Z,5.25
2022-12-24T10:57:00.704Z,5.93
2022-12-24T10:59:42.249Z,4.60
2022-12-24T11:02:33.647Z,5.28
2022-12-24T11:05:03.414Z,6.80
2022-12-24T11:07:31.658Z,3.62
2022-12-24T11:10:00.481Z,4.22
2022-12-24T11:12:32.519Z,4.78
2022-12-24T11:15:19.478Z,4.75
2022-12-24T11:18:05.905Z,5.97
2022-12-24T11:20:34.772Z,7.00
2022-12-24T11:23:02.889Z,5.07
2022-12-24T11:25:32.163Z,5.12
2022-12-24T11:28:12.495Z,4.03
2022-12-24T11:30:39.557Z,5.05
2022-12-24T11:33:09.211Z,5.70
2022-12-24T11:35:41.531Z,4.10
2022-12-24T11:38:08.361Z,4.75
2022-12-24T11:40:58.432Z,5.10
2022-12-24T11:43:44.260Z,4.30
2022-12-24T11:46:17.175Z,4.90
2022-12-24T11:48:44.619Z,5.30
2022-12-24T11:51:27.563Z,4.35
2022-12-24T11:54:19.719Z,5.22
2022-12-24T11:56:51.934Z,6.40
2022-12-24T11:59:26.109Z,4.57
2022-12-24T12:01:56.777Z,5.05
2022-12-24T12:04:39.000Z,5.68
2022-12-24T12:07:30.709Z,3.92
2022-12-24T12:10:04.429Z,4.62
2022-12-24T12:12:36.171Z,5.30
2022-12-24T12:15:17.267Z,4.72
2022-12-24T12:17:54.372Z,5.37
2022-12-24T12:20:30.489Z,4.22
2022-12-24T12:23:24.384Z,6.07
2022-12-24T12:26:04.555Z,4.82
2022-12-24T12:28:51.776Z,5.72
2022-12-24T12:31:41.071Z,4.90
2022-12-24T12:34:19.095Z,4.00
2022-12-24T12:36:54.526Z,5.90
2022-12-24T12:39:21.253Z,3.53
2022-12-24T12:42:09.509Z,4.18
2022-12-24T12:44:42.342Z,5.03
2022-12-24T12:47:28.188Z,4.57
2022-12-24T12:50:13.697Z,4.60
2022-12-24T12:53:02.240Z,5.18
2022-12-24T12:55:59.795Z,2.97
2022-12-24T12:58:51.266Z,4.57
2022-12-24T13:01:32.968Z,6.60
2022-12-24T13:04:17.094Z,4.37
2022-12-24T13:06:58.854Z,5.20
2022-12-24T13:09:49.674Z,3.65
2022-12-24T13:12:26.790Z,5.75
2022-12-24T13:15:08.959Z,6.00
2022-12-24T13:17:55.616Z,3.83
2022-12-24T13:20:32.991Z,5.50
2022-12-24T13:23:02.462Z,5.62
2022-12-24T13:25:37.588Z,6.62
2022-12-24T13:28:20.759Z,5.28
2022-12-24T13:30:49.056Z,5.20
2022-12-24T13:33:38.964Z,4.37
2022-12-24T13:36:08.891Z,6.55
2022-12-24T13:38:54.495Z,6.30
2022-12-24T13:41:39.542Z,6.22
2022-12-24T13:44:06.971Z,4.87
2022-12-24T13:46:57.827Z,5.37
2022-12-24T13:49:39.318Z,6.15
2022-12-24T13:52:12.344Z,7.72
2022-12-24T13:54:46.892Z,6.75
2022-12-24T13:57:38.247Z,7.60
2022-12-24T14:00:39.134Z,7.65
2022-12-24T14:03:17.272Z,8.73
2022-12-24T14:05:43.907Z,6.05
2022-12-24T14:08:15.199Z,6.50
2022-12-24T14:10:59.767Z,7.45
2022-12-24T14:13:38.868Z,7.18
2022-12-24T14:16:31.844Z,6.07
2022-12-24T14:19:19.294Z,6.00
2022-12-24T14:21:55.221Z,7.62
2022-12-24T14:24:25.533Z,6.35
2022-12-24T14:26:57.130Z,8.52
2022-12-24T14:29:43.120Z,6.68
2022-12-24T14:32:15.647Z,6.60
2022-12-24T14:34:43.389Z,5.82
2022-12-24T14:37:13.428Z,5.22
2022-12-24T14:39:48.133Z,5.78
2022-12-24T14:42:47.249Z,4.57
2022-12-24T14:45:19.897Z,6.82
2022-12-24T14:48:13.617Z,7.62
2022-12-24T14:50:49.255Z,6.45
2022-12-24T14:54:02.318Z,5.53
2022-12-24T14:58:56.758Z,7.87
2022-12-24T15:01:26.244Z,5.68
2022-12-24T15:04:06.034Z,4.65
2022-12-24T15:06:36.942Z,6.03
2022-12-24T15:09:04.979Z,6.03
2022-12-24T15:11:32.283Z,5.75
2022-12-24T15:14:00.606Z,5.72
2022-12-24T15:16:32.880Z,5.15
2022-12-24T15:19:06.885Z,6.32
2022-12-24T15:21:41.827Z,5.45
2022-12-24T15:24:25.441Z,5.00
2022-12-24T15:26:52.265Z,5.72
2022-12-24T15:29:39.264Z,5.37
2022-12-24T15:32:06.175Z,5.87
2022-12-24T15:34:39.347Z,6.70
2022-12-24T15:37:21.942Z,4.82
2022-12-24T15:40:16.774Z,4.12
2022-12-24T15:42:44.168Z,4.43
2022-12-24T15:45:27.651Z,5.40
2022-12-24T15:48:09.055Z,4.85
2022-12-24T15:50:38.731Z,6.50
2022-12-24T15:53:20.197Z,5.90
2022-12-24T15:56:11.356Z,5.65
2022-12-24T15:58:43.401Z,4.87
2022-12-24T16:01:13.497Z,6.82
2022-12-24T16:03:54.685Z,5.25
2022-12-24T16:06:23.143Z,7.00
2022-12-24T16:08:51.881Z,5.50
2022-12-24T16:11:33.699Z,5.85
2022-12-24T16:14:04.354Z,6.30
2022-12-24T16:16:41.954Z,5.35
2022-12-24T16:19:21.140Z,7.05
2022-12-24T16:21:55.402Z,5.85
2022-12-24T16:24:24.036Z,5.80
2022-12-24T16:26:51.168Z,4.95
2022-12-24T16:29:19.429Z,6.32
2022-12-24T16:32:04.842Z,6.43
2022-12-24T16:34:33.145Z,7.18
2022-12-24T16:37:00.402Z,5.03
2022-12-24T16:39:32.433Z,5.90
2022-12-24T16:42:20.498Z,5.10
2022-12-24T16:44:48.509Z,6.35
2022-12-24T16:47:22.153Z,5.85
2022-12-24T16:49:50.372Z,6.82
2022-12-24T16:52:22.750Z,6.57
2022-12-24T16:54:50.596Z,7.20
2022-12-24T16:57:17.652Z,4.72
2022-12-24T16:59:44.419Z,5.12
2022-12-24T17:02:17.318Z,5.85
2022-12-24T17:04:45.106Z,4.75
2022-12-24T17:07:14.394Z,6.22
2022-12-24T17:09:41.436Z,5.18
2022-12-24T17:12:08.584Z,5.43
2022-12-24T17:14:36.151Z,4.43
2022-12-24T17:17:02.844Z,4.75
2022-12-24T17:19:29.487Z,6.07
2022-12-24T17:21:56.401Z,6.82
2022-12-24T17:24:23.110Z,5.97
2022-12-24T17:26:55.931Z,4.82
2022-12-24T17:29:22.867Z,5.75
2022-12-24T17:31:51.390Z,5.03
2022-12-24T17:34:18.205Z,5.45
2022-12-24T17:36:45.165Z,5.10
2022-12-24T17:39:11.849Z,6.55
2022-12-24T17:41:38.592Z,4.40
2022-12-24T17:44:08.811Z,4.78
2022-12-24T17:46:35.536Z,6.20
2022-12-24T17:49:02.316Z,5.80
2022-12-24T17:51:31.082Z,4.53
2022-12-24T17:53:57.693Z,5.87
2022-12-24T17:56:24.683Z,5.05
2022-12-24T17:58:51.587Z,6.93
2022-12-24T18:01:21.514Z,5.25
2022-12-24T18:03:50.570Z,4.80
2022-12-24T18:06:18.769Z,4.47
2022-12-24T18:08:46.995Z,5.75
2022-12-24T18:11:21.585Z,6.25
2022-12-24T18:13:49.393Z,7.75
2022-12-24T18:16:19.633Z,5.93
2022-12-24T18:18:47.433Z,5.47
2022-12-24T18:21:15.621Z,7.15
2022-12-24T18:23:43.909Z,6.50
2022-12-24T18:26:12.058Z,5.85
2022-12-24T18:28:38.851Z,5.80
2022-12-24T18:31:09.049Z,6.55
2022-12-24T18:33:36.007Z,6.00
2022-12-24T18:36:02.649Z,5.22
2022-12-24T18:38:29.837Z,6.03
2022-12-24T18:41:06.641Z,6.05
2022-12-24T18:43:34.263Z,5.90
2022-12-24T18:46:13.938Z,6.20
2022-12-24T18:48:41.259Z,7.65
2022-12-24T18:51:09.793Z,7.12
2022-12-24T18:53:38.605Z,7.43
2022-12-24T18:56:07.543Z,6.85
2022-12-24T18:58:34.373Z,7.05
2022-12-24T19:01:01.358Z,6.57
2022-12-24T19:03:28.261Z,7.50
2022-12-24T19:06:01.402Z,9.68
2022-12-24T19:08:56.462Z,8.60
2022-12-24T19:11:16.702Z,10.63
2022-12-24T19:13:48.212Z,7.30
2022-12-24T19:16:16.007Z,9.13
2022-12-24T19:18:43.565Z,7.82
2022-12-24T19:21:12.765Z,6.82
2022-12-24T19:23:39.441Z,8.45
2022-12-24T19:26:06.969Z,5.82
2022-12-24T19:28:34.032Z,7.90
2022-12-24T19:31:13.393Z,6.65
2022-12-24T19:33:46.954Z,9.02
2022-12-24T19:36:19.942Z,8.70
2022-12-24T19:38:47.707Z,7.35
2022-12-24T19:41:20.319Z,7.80
2022-12-24T19:43:50.078Z,6.62
2022-12-24T19:46:20.275Z,7.53
2022-12-24T19:48:53.420Z,8.50
2022-12-24T19:51:21.180Z,7.15
2022-12-24T19:53:48.463Z,6.43
2022-12-24T19:56:16.848Z,6.32
2022-12-24T19:58:44.597Z,7.05
2022-12-24T20:01:17.817Z,7.07
2022-12-24T20:03:45.727Z,7.20
2022-12-24T20:06:13.705Z,7.15
2022-12-24T20:08:40.893Z,6.32
2022-12-24T20:11:10.562Z,5.57
2022-12-24T20:13:38.531Z,5.78
2022-12-24T20:16:12.313Z,6.95
2022-12-24T20:18:39.742Z,7.70
2022-12-24T20:21:09.072Z,6.70
2022-12-24T20:23:38.776Z,7.90
2022-12-24T20:26:08.000Z,7.15
2022-12-24T20:28:36.894Z,8.10
2022-12-24T20:31:15.334Z,6.87
2022-12-24T20:33:43.698Z,5.97
2022-12-24T20:36:11.279Z,6.32
2022-12-24T20:38:38.862Z,6.30
2022-12-24T20:41:07.231Z,6.87
2022-12-24T20:43:36.292Z,6.28
2022-12-24T20:46:06.497Z,8.55
2022-12-24T20:48:33.956Z,6.65
2022-12-24T20:51:05.768Z,7.78
2022-12-24T20:55:59.482Z,8.13
2022-12-24T20:58:26.123Z,8.55
2022-12-24T21:00:53.318Z,8.65
2022-12-24T21:03:20.268Z,9.32
2022-12-24T21:05:47.021Z,9.43
2022-12-24T21:08:14.342Z,8.38
2022-12-24T21:10:41.600Z,8.73
2022-12-24T21:13:08.801Z,8.45
2022-12-24T21:15:39.900Z,9.57
2022-12-24T21:18:12.023Z,7.22
2022-12-24T21:20:41.159Z,7.25
2022-12-24T21:23:08.035Z,6.95
2022-12-24T21:25:35.641Z,7.68
2022-12-24T21:28:02.846Z,7.70
2022-12-24T21:30:29.826Z,6.30
2022-12-24T21:32:56.601Z,6.93
2022-12-24T21:35:23.481Z,6.03
2022-12-24T21:37:50.388Z,6.50
2022-12-24T21:40:17.175Z,7.12
2022-12-24T21:42:44.489Z,5.53
2022-12-24T21:45:12.708Z,6.05
2022-12-24T21:47:39.437Z,6.78
2022-12-24T21:50:36.362Z,8.75
2022-12-24T21:53:22.071Z,6.75
2022-12-24T21:55:49.051Z,7.05
2022-12-24T21:58:16.793Z,7.93
2022-12-24T22:00:43.551Z,9.70
2022-12-24T22:03:10.517Z,9.93
2022-12-24T22:05:37.280Z,6.57
2022-12-24T22:08:22.705Z,7.78
2022-12-24T22:11:08.718Z,6.25
2022-12-24T22:13:35.595Z,7.00
2022-12-24T22:16:02.586Z,7.40
2022-12-24T22:18:29.217Z,9.70
2022-12-24T22:20:56.464Z,6.57
2022-12-24T22:23:24.069Z,7.87
2022-12-24T22:25:50.740Z,6.87
2022-12-24T22:28:17.422Z,6.80
2022-12-24T22:30:44.465Z,8.10
2022-12-24T22:46:14.638Z,4.70
2022-12-24T22:48:43.330Z,5.35
2022-12-24T22:51:15.961Z,4.62
2022-12-24T22:53:43.390Z,5.80
2022-12-24T22:56:15.690Z,6.55
2022-12-24T22:58:42.509Z,4.55
2022-12-24T23:01:10.568Z,7.95
2022-12-24T23:03:37.794Z,5.15
2022-12-24T23:06:07.025Z,5.68
2022-12-24T23:08:36.222Z,6.75
2022-12-24T23:11:14.827Z,5.62
2022-12-24T23:14:02.636Z,7.35
2022-12-24T23:16:30.558Z,5.95
2022-12-24T23:18:59.756Z,6.45
2022-12-24T23:21:27.616Z,5.40
2022-12-24T23:23:55.867Z,5.85
2022-12-24T23:26:23.694Z,4.50
2022-12-24T23:28:52.979Z,5.78
2022-12-24T23:31:20.675Z,4.85
2022-12-24T23:33:49.095Z,5.55
2022-12-24T23:36:15.932Z,6.05
2022-12-24T23:38:42.677Z,7.55
2022-12-24T23:41:10.966Z,5.12
2022-12-24T23:43:37.986Z,5.90
2022-12-24T23:46:04.840Z,6.43
2022-12-24T23:48:32.051Z,6.47
2022-12-24T23:51:11.718Z,5.80
2022-12-24T23:53:39.035Z,4.95
2022-12-24T23:56:07.465Z,6.22
2022-12-24T23:58:34.209Z,5.12
